createdAt,value
2022-09-28T10:10:28.582Z,27.62
2022-09-28T10:15:35.785Z,27.55
2022-09-28T10:20:40.298Z,27.81
2022-09-28T10:25:45.836Z,27.84
2022-09-28T10:30:48.142Z,28.13
2022-09-28T10:35:50.679Z,28.28
2022-09-28T10:40:56.305Z,28.23
2022-09-28T10:46:14.929Z,28.32
2022-09-28T10:51:17.145Z,28.55
2022-09-28T10:56:24.069Z,28.44
2022-09-28T11:01:33.376Z,28.52
2022-09-28T11:06:40.625Z,28.39
2022-09-28T11:11:43.522Z,28.67
2022-09-28T11:16:45.737Z,28.84
2022-09-28T11:21:48.086Z,28.87
2022-09-28T11:26:56.915Z,29.19
2022-09-28T11:32:04.569Z,29.09
2022-09-28T11:37:43.568Z,29.13
2022-09-28T11:43:17.908Z,28.81
2022-09-28T11:48:28.168Z,28.96
2022-09-28T11:53:36.898Z,29.09
2022-09-28T11:58:48.557Z,29.39
2022-09-28T12:04:00.499Z,29.38
2022-09-28T12:09:18.602Z,29.58
2022-09-28T12:14:27.598Z,29.59
2022-09-28T12:19:55.798Z,29.48
2022-09-28T12:24:59.744Z,29.69
2022-09-28T12:30:17.178Z,29.60
2022-09-28T12:35:45.342Z,29.74
2022-09-28T12:40:57.316Z,29.87
2022-09-28T12:46:28.183Z,29.96
2022-09-28T12:51:50.193Z,29.84
2022-09-28T12:57:08.116Z,29.69
2022-09-28T13:02:31.675Z,29.55
2022-09-28T13:07:51.211Z,29.74
2022-09-28T13:13:14.745Z,29.96
2022-09-28T13:18:46.287Z,30.08
2022-09-28T13:24:00.718Z,30.09
2022-09-28T13:29:18.026Z,30.21
2022-09-28T13:34:25.423Z,30.22
2022-09-28T13:39:45.813Z,30.37
2022-09-28T13:45:21.751Z,30.18
2022-09-28T13:50:45.419Z,29.61
2022-09-28T13:56:12.766Z,29.19
2022-09-28T14:01:28.518Z,29.53
2022-09-28T14:06:32.999Z,29.61
2022-09-28T14:11:35.285Z,29.37
2022-09-28T14:16:39.073Z,29.09
2022-09-28T14:21:56.493Z,29.35
2022-09-28T14:27:23.061Z,29.54
2022-09-28T14:32:33.505Z,29.91
2022-09-28T14:37:58.741Z,29.98
2022-09-28T14:43:25.580Z,29.73
2022-09-28T14:48:49.549Z,29.21
2022-09-28T14:53:57.065Z,28.59
2022-09-28T14:58:59.560Z,28.58
2022-09-28T15:04:10.153Z,28.56
2022-09-28T15:09:45.969Z,28.67
2022-09-28T15:14:58.951Z,28.60
2022-09-28T15:20:19.745Z,28.49
2022-09-28T15:25:25.262Z,28.53
2022-09-28T15:30:33.247Z,28.32
2022-09-28T15:35:36.047Z,28.46
2022-09-28T15:40:39.674Z,28.98
2022-09-28T15:45:43.845Z,28.74
2022-09-28T15:51:00.224Z,28.40
2022-09-28T15:56:10.274Z,28.16
2022-09-28T16:01:31.306Z,28.05
2022-09-28T16:06:33.540Z,27.85
2022-09-28T16:11:41.432Z,27.88
2022-09-28T16:16:48.423Z,27.44
2022-09-28T16:21:56.141Z,27.46
2022-09-28T16:27:05.595Z,27.22
2022-09-28T16:32:38.856Z,27.12
2022-09-28T16:37:42.944Z,26.81
2022-09-28T16:42:49.156Z,26.70
2022-09-28T16:47:54.950Z,26.36
2022-09-28T16:53:25.384Z,26.45
2022-09-28T16:58:29.204Z,26.69
2022-09-28T17:03:31.523Z,26.60
2022-09-28T17:08:34.123Z,26.53
2022-09-28T17:13:36.418Z,26.56
2022-09-28T17:18:40.166Z,26.66
2022-09-28T17:23:46.517Z,26.57
2022-09-28T17:28:48.758Z,26.65
2022-09-28T17:33:50.903Z,26.47
2022-09-28T17:38:53.175Z,26.55
2022-09-28T17:43:55.949Z,26.39
2022-09-28T17:48:59.929Z,26.50
2022-09-28T17:54:02.288Z,26.29
2022-09-28T17:59:07.635Z,26.40
2022-09-28T18:04:23.062Z,26.33
2022-09-28T18:09:30.060Z,26.05
2022-09-28T18:14:32.265Z,26.21
2022-09-28T18:19:34.489Z,26.01
2022-09-28T18:24:36.829Z,26.06
2022-09-28T18:29:39.013Z,26.02
2022-09-28T18:34:41.199Z,26.03
2022-09-28T18:39:43.487Z,25.78
2022-09-28T18:44:45.695Z,25.80
2022-09-28T18:49:47.843Z,25.40
2022-09-28T18:54:51.154Z,25.52
2022-09-28T18:59:53.367Z,25.41
2022-09-28T19:04:55.897Z,25.33
2022-09-28T19:09:58.430Z,25.48
2022-09-28T19:15:00.539Z,25.31
2022-09-28T19:20:02.724Z,24.96
2022-09-28T19:25:06.193Z,25.11
2022-09-28T19:30:08.941Z,25.13
2022-09-28T19:35:11.218Z,24.74
2022-09-28T19:40:13.463Z,24.92
2022-09-28T19:45:15.649Z,24.42
2022-09-28T19:50:17.849Z,24.56
2022-09-28T19:55:21.530Z,24.71
2022-09-28T20:00:23.886Z,24.64
2022-09-28T20:05:26.080Z,24.67
2022-09-28T20:10:28.229Z,24.58
2022-09-28T20:15:31.449Z,24.40
2022-09-28T20:20:33.629Z,24.35
2022-09-28T20:25:36.168Z,24.45
2022-09-28T20:30:39.196Z,24.10
2022-09-28T20:35:41.724Z,24.33
2022-09-28T20:40:44.030Z,24.23
2022-09-28T20:45:46.262Z,24.22
2022-09-28T20:50:48.415Z,24.21
2022-09-28T20:56:05.209Z,24.21
2022-09-28T21:01:10.837Z,24.17
2022-09-28T21:06:14.606Z,24.25
2022-09-28T21:11:21.163Z,24.23
2022-09-28T21:16:23.321Z,24.07
2022-09-28T21:21:26.705Z,24.23
2022-09-28T21:26:31.519Z,24.22
2022-09-28T21:31:40.111Z,24.16
2022-09-28T21:36:43.797Z,24.05
2022-09-28T21:41:46.049Z,23.84
2022-09-28T21:46:48.233Z,23.70
2022-09-28T21:51:50.412Z,23.90
2022-09-28T21:56:52.977Z,23.76
2022-09-28T22:01:55.147Z,23.64
2022-09-28T22:06:57.339Z,23.50
2022-09-28T22:11:59.522Z,23.40
2022-09-28T22:17:01.963Z,23.44
2022-09-28T22:22:04.501Z,23.11
2022-09-28T22:27:06.624Z,22.94
2022-09-28T22:32:09.376Z,23.00
2022-09-28T22:37:11.618Z,22.87
2022-09-28T22:42:14.355Z,23.10
2022-09-28T22:47:16.480Z,22.68
2022-09-28T22:52:18.639Z,22.64
2022-09-28T22:57:20.790Z,23.10
2022-09-28T23:02:23.105Z,23.14
2022-09-28T23:07:26.588Z,23.12
2022-09-28T23:12:30.841Z,23.12
2022-09-28T23:17:33.064Z,23.02
2022-09-28T23:22:35.225Z,23.06
2022-09-28T23:27:37.496Z,22.83
2022-09-28T23:32:39.630Z,22.69
2022-09-28T23:37:41.756Z,22.54
2022-09-28T23:42:43.936Z,22.53
2022-09-28T23:47:46.086Z,22.69
2022-09-28T23:52:48.888Z,22.75
2022-09-28T23:57:51.456Z,22.36
